sensor_id;sensor_type;location;lat;lon;timestamp;temperature;humidity
10129;DHT22;5104;50.720;7.044;2023-03-23T00:00:52;13.40;99.90
10129;DHT22;5104;50.720;7.044;2023-03-23T00:03:19;13.40;99.90
10129;DHT22;5104;50.720;7.044;2023-03-23T00:05:46;13.40;99.90
10129;DHT22;5104;50.720;7.044;2023-03-23T00:08:17;13.40;99.90
10129;DHT22;5104;50.720;7.044;2023-03-23T00:10:48;13.40;99.90
10129;DHT22;5104;50.720;7.044;2023-03-23T00:13:15;13.40;99.90
10129;DHT22;5104;50.720;7.044;2023-03-23T00:15:45;13.30;1.00
10129;DHT22;5104;50.720;7.044;2023-03-23T00:18:15;13.40;1.00
10129;DHT22;5104;50.720;7.044;2023-03-23T00:20:48;13.40;99.90
10129;DHT22;5104;50.720;7.044;2023-03-23T00:23:17;13.40;1.00
10129;DHT22;5104;50.720;7.044;2023-03-23T00:25:49;13.40;1.00
10129;DHT22;5104;50.720;7.044;2023-03-23T00:28:19;13.30;1.00
10129;DHT22;5104;50.720;7.044;2023-03-23T00:30:54;13.30;1.00
10129;DHT22;5104;50.720;7.044;2023-03-23T00:33:22;13.30;1.00
10129;DHT22;5104;50.720;7.044;2023-03-23T00:35:49;13.30;1.00
10129;DHT22;5104;50.720;7.044;2023-03-23T00:38:19;13.30;99.90
10129;DHT22;5104;50.720;7.044;2023-03-23T00:40:46;13.20;65.90
10129;DHT22;5104;50.720;7.044;2023-03-23T00:43:14;13.20;2.60
10129;DHT22;5104;50.720;7.044;2023-03-23T00:45:42;13.30;1.00
10129;DHT22;5104;50.720;7.044;2023-03-23T00:48:10;13.20;1.00
10129;DHT22;5104;50.720;7.044;2023-03-23T00:50:37;13.20;1.00
10129;DHT22;5104;50.720;7.044;2023-03-23T00:53:04;13.20;1.00
10129;DHT22;5104;50.720;7.044;2023-03-23T00:55:33;13.20;1.00
10129;DHT22;5104;50.720;7.044;2023-03-23T00:58:01;13.20;1.00
10129;DHT22;5104;50.720;7.044;2023-03-23T01:00:28;13.20;1.00
10129;DHT22;5104;50.720;7.044;2023-03-23T01:02:54;13.20;99.90
10129;DHT22;5104;50.720;7.044;2023-03-23T01:05:21;13.30;99.90
10129;DHT22;5104;50.720;7.044;2023-03-23T01:07:48;13.30;1.00
10129;DHT22;5104;50.720;7.044;2023-03-23T01:10:15;13.30;1.00
10129;DHT22;5104;50.720;7.044;2023-03-23T01:12:45;13.30;99.90
10129;DHT22;5104;50.720;7.044;2023-03-23T01:15:16;13.30;99.90
10129;DHT22;5104;50.720;7.044;2023-03-23T01:17:43;13.30;99.90
10129;DHT22;5104;50.720;7.044;2023-03-23T01:20:12;13.30;99.90
10129;DHT22;5104;50.720;7.044;2023-03-23T01:22:40;13.30;99.90
10129;DHT22;5104;50.720;7.044;2023-03-23T01:25:09;13.20;99.90
10129;DHT22;5104;50.720;7.044;2023-03-23T01:27:37;13.30;99.90
10129;DHT22;5104;50.720;7.044;2023-03-23T01:30:06;13.20;99.90
10129;DHT22;5104;50.720;7.044;2023-03-23T01:32:34;13.20;90.60
10129;DHT22;5104;50.720;7.044;2023-03-23T01:35:01;13.20;1.00
10129;DHT22;5104;50.720;7.044;2023-03-23T01:37:27;13.20;1.00
10129;DHT22;5104;50.720;7.044;2023-03-23T01:39:55;13.20;99.90
10129;DHT22;5104;50.720;7.044;2023-03-23T01:42:23;13.20;99.90
10129;DHT22;5104;50.720;7.044;2023-03-23T01:45:22;13.20;5.00
10129;DHT22;5104;50.720;7.044;2023-03-23T01:47:55;13.20;30.30
10129;DHT22;5104;50.720;7.044;2023-03-23T01:50:24;13.10;99.90
10129;DHT22;5104;50.720;7.044;2023-03-23T01:52:53;13.10;99.90
10129;DHT22;5104;50.720;7.044;2023-03-23T01:55:22;13.10;99.90
10129;DHT22;5104;50.720;7.044;2023-03-23T01:57:51;13.00;99.90
10129;DHT22;5104;50.720;7.044;2023-03-23T02:00:19;13.00;99.90
10129;DHT22;5104;50.720;7.044;2023-03-23T02:02:49;13.00;1.00
10129;DHT22;5104;50.720;7.044;2023-03-23T02:05:22;13.00;1.00
10129;DHT22;5104;50.720;7.044;2023-03-23T02:07:50;12.90;1.00
10129;DHT22;5104;50.720;7.044;2023-03-23T02:10:17;12.90;99.90
10129;DHT22;5104;50.720;7.044;2023-03-23T02:12:44;12.90;1.00
10129;DHT22;5104;50.720;7.044;2023-03-23T02:15:11;12.80;1.00
10129;DHT22;5104;50.720;7.044;2023-03-23T02:17:43;12.80;1.00
10129;DHT22;5104;50.720;7.044;2023-03-23T02:20:41;12.80;99.90
10129;DHT22;5104;50.720;7.044;2023-03-23T02:23:36;12.70;99.90
10129;DHT22;5104;50.720;7.044;2023-03-23T02:26:29;12.70;1.00
10129;DHT22;5104;50.720;7.044;2023-03-23T02:29:19;12.70;1.00
10129;DHT22;5104;50.720;7.044;2023-03-23T02:32:02;12.60;16.50
10129;DHT22;5104;50.720;7.044;2023-03-23T02:34:36;12.60;1.00
10129;DHT22;5104;50.720;7.044;2023-03-23T02:37:09;12.50;1.00
10129;DHT22;5104;50.720;7.044;2023-03-23T02:39:42;12.50;1.00
10129;DHT22;5104;50.720;7.044;2023-03-23T02:42:12;12.50;1.00
10129;DHT22;5104;50.720;7.044;2023-03-23T02:44:43;12.50;1.00
10129;DHT22;5104;50.720;7.044;2023-03-23T02:47:15;12.50;56.30
10129;DHT22;5104;50.720;7.044;2023-03-23T02:49:46;12.50;99.90
10129;DHT22;5104;50.720;7.044;2023-03-23T02:52:18;12.40;1.00
10129;DHT22;5104;50.720;7.044;2023-03-23T02:54:48;12.30;52.30
10129;DHT22;5104;50.720;7.044;2023-03-23T02:57:16;12.20;1.00
10129;DHT22;5104;50.720;7.044;2023-03-23T02:59:45;12.20;1.00
10129;DHT22;5104;50.720;7.044;2023-03-23T03:02:15;12.10;1.00
10129;DHT22;5104;50.720;7.044;2023-03-23T03:04:52;12.10;1.00
10129;DHT22;5104;50.720;7.044;2023-03-23T03:07:44;12.00;1.00
10129;DHT22;5104;50.720;7.044;2023-03-23T03:10:18;12.00;1.00
10129;DHT22;5104;50.720;7.044;2023-03-23T03:12:52;11.90;1.00
10129;DHT22;5104;50.720;7.044;2023-03-23T03:15:27;11.90;1.00
10129;DHT22;5104;50.720;7.044;2023-03-23T03:18:04;11.90;1.00
10129;DHT22;5104;50.720;7.044;2023-03-23T03:20:38;11.90;1.00
10129;DHT22;5104;50.720;7.044;2023-03-23T03:23:07;11.90;1.00
10129;DHT22;5104;50.720;7.044;2023-03-23T03:25:38;11.90;1.00
10129;DHT22;5104;50.720;7.044;2023-03-23T03:28:14;11.80;1.00
10129;DHT22;5104;50.720;7.044;2023-03-23T03:30:43;11.80;1.00
10129;DHT22;5104;50.720;7.044;2023-03-23T03:33:12;11.80;1.00
10129;DHT22;5104;50.720;7.044;2023-03-23T03:35:42;11.80;1.00
10129;DHT22;5104;50.720;7.044;2023-03-23T03:38:11;11.70;1.00
10129;DHT22;5104;50.720;7.044;2023-03-23T03:40:38;11.80;1.00
10129;DHT22;5104;50.720;7.044;2023-03-23T03:43:06;11.80;1.00
10129;DHT22;5104;50.720;7.044;2023-03-23T03:45:33;11.80;1.00
10129;DHT22;5104;50.720;7.044;2023-03-23T03:48:00;11.80;1.00
10129;DHT22;5104;50.720;7.044;2023-03-23T03:50:28;11.80;1.00
10129;DHT22;5104;50.720;7.044;2023-03-23T03:52:56;11.80;1.00
10129;DHT22;5104;50.720;7.044;2023-03-23T03:55:24;11.80;1.00
10129;DHT22;5104;50.720;7.044;2023-03-23T03:57:53;11.90;1.00
10129;DHT22;5104;50.720;7.044;2023-03-23T04:00:21;11.90;1.00
10129;DHT22;5104;50.720;7.044;2023-03-23T04:02:50;11.90;1.00
10129;DHT22;5104;50.720;7.044;2023-03-23T04:05:20;12.00;1.00
10129;DHT22;5104;50.720;7.044;2023-03-23T04:07:48;12.00;1.00
10129;DHT22;5104;50.720;7.044;2023-03-23T04:10:19;12.00;1.00
10129;DHT22;5104;50.720;7.044;2023-03-23T04:12:47;12.00;1.00
10129;DHT22;5104;50.720;7.044;2023-03-23T04:15:14;12.00;1.00
10129;DHT22;5104;50.720;7.044;2023-03-23T04:17:41;12.00;1.00
10129;DHT22;5104;50.720;7.044;2023-03-23T04:20:08;12.00;1.00
10129;DHT22;5104;50.720;7.044;2023-03-23T04:22:38;12.00;1.00
10129;DHT22;5104;50.720;7.044;2023-03-23T04:25:10;12.00;1.00
10129;DHT22;5104;50.720;7.044;2023-03-23T04:27:39;11.90;1.00
10129;DHT22;5104;50.720;7.044;2023-03-23T04:30:09;12.00;1.00
10129;DHT22;5104;50.720;7.044;2023-03-23T04:32:37;12.00;1.00
10129;DHT22;5104;50.720;7.044;2023-03-23T04:35:08;11.90;1.00
10129;DHT22;5104;50.720;7.044;2023-03-23T04:37:37;11.90;1.00
10129;DHT22;5104;50.720;7.044;2023-03-23T04:40:05;11.80;1.00
10129;DHT22;5104;50.720;7.044;2023-03-23T04:42:37;11.70;1.00
10129;DHT22;5104;50.720;7.044;2023-03-23T04:45:07;11.70;37.00
10129;DHT22;5104;50.720;7.044;2023-03-23T04:47:36;11.70;68.60
10129;DHT22;5104;50.720;7.044;2023-03-23T04:50:07;11.70;40.60
10129;DHT22;5104;50.720;7.044;2023-03-23T04:52:35;11.60;99.90
10129;DHT22;5104;50.720;7.044;2023-03-23T04:55:04;11.60;99.90
10129;DHT22;5104;50.720;7.044;2023-03-23T04:57:31;11.60;99.90
10129;DHT22;5104;50.720;7.044;2023-03-23T04:59:58;11.60;99.90
10129;DHT22;5104;50.720;7.044;2023-03-23T05:02:26;11.60;91.40
10129;DHT22;5104;50.720;7.044;2023-03-23T05:04:56;11.60;67.80
10129;DHT22;5104;50.720;7.044;2023-03-23T05:07:23;11.60;21.40
10129;DHT22;5104;50.720;7.044;2023-03-23T05:09:50;11.60;42.90
10129;DHT22;5104;50.720;7.044;2023-03-23T05:12:18;11.60;46.50
10129;DHT22;5104;50.720;7.044;2023-03-23T05:14:45;11.50;83.80
10129;DHT22;5104;50.720;7.044;2023-03-23T05:17:11;11.50;72.90
10129;DHT22;5104;50.720;7.044;2023-03-23T05:19:45;11.50;99.90
10129;DHT22;5104;50.720;7.044;2023-03-23T05:22:13;11.50;82.50
10129;DHT22;5104;50.720;7.044;2023-03-23T05:24:40;11.50;28.10
10129;DHT22;5104;50.720;7.044;2023-03-23T05:27:08;11.50;1.00
10129;DHT22;5104;50.720;7.044;2023-03-23T05:29:35;11.50;1.00
10129;DHT22;5104;50.720;7.044;2023-03-23T05:32:03;11.50;1.00
10129;DHT22;5104;50.720;7.044;2023-03-23T05:34:31;11.50;1.00
10129;DHT22;5104;50.720;7.044;2023-03-23T05:37:01;11.50;1.00
10129;DHT22;5104;50.720;7.044;2023-03-23T05:39:29;11.50;1.00
10129;DHT22;5104;50.720;7.044;2023-03-23T05:41:56;11.60;1.00
10129;DHT22;5104;50.720;7.044;2023-03-23T05:44:24;11.60;1.00
10129;DHT22;5104;50.720;7.044;2023-03-23T05:46:52;11.60;1.00
10129;DHT22;5104;50.720;7.044;2023-03-23T05:49:19;11.70;1.00
10129;DHT22;5104;50.720;7.044;2023-03-23T05:51:46;11.70;99.90
10129;DHT22;5104;50.720;7.044;2023-03-23T05:54:14;11.70;99.90
10129;DHT22;5104;50.720;7.044;2023-03-23T05:56:41;11.70;1.00
10129;DHT22;5104;50.720;7.044;2023-03-23T05:59:09;11.70;99.90
10129;DHT22;5104;50.720;7.044;2023-03-23T06:01:37;11.80;1.00
10129;DHT22;5104;50.720;7.044;2023-03-23T06:04:04;11.80;1.00
10129;DHT22;5104;50.720;7.044;2023-03-23T06:06:31;11.80;1.00
10129;DHT22;5104;50.720;7.044;2023-03-23T06:08:58;11.90;97.60
10129;DHT22;5104;50.720;7.044;2023-03-23T06:11:27;12.00;99.90
10129;DHT22;5104;50.720;7.044;2023-03-23T06:13:54;12.00;23.10
10129;DHT22;5104;50.720;7.044;2023-03-23T06:16:21;12.10;99.90
10129;DHT22;5104;50.720;7.044;2023-03-23T06:18:48;12.10;99.90
10129;DHT22;5104;50.720;7.044;2023-03-23T06:21:15;12.10;98.80
10129;DHT22;5104;50.720;7.044;2023-03-23T06:23:44;12.20;1.00
10129;DHT22;5104;50.720;7.044;2023-03-23T06:26:12;12.30;1.00
10129;DHT22;5104;50.720;7.044;2023-03-23T06:28:43;12.30;70.30
10129;DHT22;5104;50.720;7.044;2023-03-23T06:31:10;12.40;1.00
10129;DHT22;5104;50.720;7.044;2023-03-23T06:33:38;12.50;1.00
10129;DHT22;5104;50.720;7.044;2023-03-23T06:36:05;12.60;1.00
10129;DHT22;5104;50.720;7.044;2023-03-23T06:38:33;12.70;99.90
10129;DHT22;5104;50.720;7.044;2023-03-23T06:40:59;12.70;1.00
10129;DHT22;5104;50.720;7.044;2023-03-23T06:43:27;12.80;99.90
10129;DHT22;5104;50.720;7.044;2023-03-23T06:45:58;12.90;99.90
10129;DHT22;5104;50.720;7.044;2023-03-23T06:48:25;13.00;99.90
10129;DHT22;5104;50.720;7.044;2023-03-23T06:50:52;13.10;99.90
10129;DHT22;5104;50.720;7.044;2023-03-23T06:53:19;13.10;40.60
10129;DHT22;5104;50.720;7.044;2023-03-23T06:55:46;13.20;68.60
10129;DHT22;5104;50.720;7.044;2023-03-23T06:58:13;13.20;1.00
10129;DHT22;5104;50.720;7.044;2023-03-23T07:00:40;13.30;1.00
10129;DHT22;5104;50.720;7.044;2023-03-23T07:03:09;13.30;1.00
10129;DHT22;5104;50.720;7.044;2023-03-23T07:05:36;13.30;1.00
10129;DHT22;5104;50.720;7.044;2023-03-23T07:08:03;13.30;1.00
10129;DHT22;5104;50.720;7.044;2023-03-23T07:10:30;13.40;1.00
10129;DHT22;5104;50.720;7.044;2023-03-23T07:12:57;13.30;1.00
10129;DHT22;5104;50.720;7.044;2023-03-23T07:15:24;13.40;1.00
10129;DHT22;5104;50.720;7.044;2023-03-23T07:17:52;13.40;1.00
10129;DHT22;5104;50.720;7.044;2023-03-23T07:20:21;13.50;1.00
10129;DHT22;5104;50.720;7.044;2023-03-23T07:22:48;13.50;99.90
10129;DHT22;5104;50.720;7.044;2023-03-23T07:25:15;13.60;99.90
10129;DHT22;5104;50.720;7.044;2023-03-23T07:27:44;13.80;99.90
10129;DHT22;5104;50.720;7.044;2023-03-23T07:30:12;13.70;1.00
10129;DHT22;5104;50.720;7.044;2023-03-23T07:32:40;13.80;1.00
10129;DHT22;5104;50.720;7.044;2023-03-23T07:35:07;13.80;1.00
10129;DHT22;5104;50.720;7.044;2023-03-23T07:37:36;13.90;1.00
10129;DHT22;5104;50.720;7.044;2023-03-23T07:40:03;14.00;1.00
10129;DHT22;5104;50.720;7.044;2023-03-23T07:42:40;14.00;1.00
10129;DHT22;5104;50.720;7.044;2023-03-23T07:45:08;14.10;1.00
10129;DHT22;5104;50.720;7.044;2023-03-23T07:47:35;14.00;1.00
10129;DHT22;5104;50.720;7.044;2023-03-23T07:50:02;14.10;1.00
10129;DHT22;5104;50.720;7.044;2023-03-23T07:52:29;14.20;99.90
10129;DHT22;5104;50.720;7.044;2023-03-23T07:54:58;14.20;99.90
10129;DHT22;5104;50.720;7.044;2023-03-23T07:57:26;14.30;99.90
10129;DHT22;5104;50.720;7.044;2023-03-23T07:59:53;14.40;99.90
10129;DHT22;5104;50.720;7.044;2023-03-23T08:02:21;14.50;99.90
10129;DHT22;5104;50.720;7.044;2023-03-23T08:04:48;14.50;99.90
10129;DHT22;5104;50.720;7.044;2023-03-23T08:07:16;14.60;94.90
10129;DHT22;5104;50.720;7.044;2023-03-23T08:09:44;14.70;99.90
10129;DHT22;5104;50.720;7.044;2023-03-23T08:12:13;14.70;99.90
10129;DHT22;5104;50.720;7.044;2023-03-23T08:14:40;14.70;49.80
10129;DHT22;5104;50.720;7.044;2023-03-23T08:17:08;14.80;15.30
10129;DHT22;5104;50.720;7.044;2023-03-23T08:19:35;14.80;1.00
10129;DHT22;5104;50.720;7.044;2023-03-23T08:22:03;14.80;50.30
10129;DHT22;5104;50.720;7.044;2023-03-23T08:24:30;14.90;1.00
10129;DHT22;5104;50.720;7.044;2023-03-23T08:26:58;14.80;1.00
10129;DHT22;5104;50.720;7.044;2023-03-23T08:29:27;14.80;1.00
10129;DHT22;5104;50.720;7.044;2023-03-23T08:31:54;14.70;1.00
10129;DHT22;5104;50.720;7.044;2023-03-23T08:34:21;14.80;1.00
10129;DHT22;5104;50.720;7.044;2023-03-23T08:36:48;14.70;1.00
10129;DHT22;5104;50.720;7.044;2023-03-23T08:39:17;14.70;1.00
10129;DHT22;5104;50.720;7.044;2023-03-23T08:41:44;14.70;1.00
10129;DHT22;5104;50.720;7.044;2023-03-23T08:44:11;14.80;1.00
10129;DHT22;5104;50.720;7.044;2023-03-23T08:46:40;14.90;1.00
10129;DHT22;5104;50.720;7.044;2023-03-23T08:49:07;14.90;1.00
10129;DHT22;5104;50.720;7.044;2023-03-23T08:51:34;14.90;1.00
10129;DHT22;5104;50.720;7.044;2023-03-23T08:54:02;15.00;1.00
10129;DHT22;5104;50.720;7.044;2023-03-23T08:56:30;15.10;1.00
10129;DHT22;5104;50.720;7.044;2023-03-23T08:58:57;15.10;1.00
10129;DHT22;5104;50.720;7.044;2023-03-23T09:01:23;15.20;1.00
10129;DHT22;5104;50.720;7.044;2023-03-23T09:03:53;15.30;1.00
10129;DHT22;5104;50.720;7.044;2023-03-23T09:06:20;15.20;1.00
10129;DHT22;5104;50.720;7.044;2023-03-23T09:08:47;15.30;1.00
10129;DHT22;5104;50.720;7.044;2023-03-23T09:11:15;15.40;1.00
10129;DHT22;5104;50.720;7.044;2023-03-23T09:13:42;15.30;1.00
10129;DHT22;5104;50.720;7.044;2023-03-23T09:16:10;15.20;1.00
10129;DHT22;5104;50.720;7.044;2023-03-23T09:18:37;15.40;1.00
10129;DHT22;5104;50.720;7.044;2023-03-23T09:21:06;15.50;1.00
10129;DHT22;5104;50.720;7.044;2023-03-23T09:23:33;15.70;1.00
10129;DHT22;5104;50.720;7.044;2023-03-23T09:26:01;15.70;1.00
10129;DHT22;5104;50.720;7.044;2023-03-23T09:28:29;15.50;1.00
10129;DHT22;5104;50.720;7.044;2023-03-23T09:30:57;15.50;1.00
10129;DHT22;5104;50.720;7.044;2023-03-23T09:33:25;15.60;1.00
10129;DHT22;5104;50.720;7.044;2023-03-23T09:35:52;15.70;1.00
10129;DHT22;5104;50.720;7.044;2023-03-23T09:38:21;15.80;1.00
10129;DHT22;5104;50.720;7.044;2023-03-23T09:40:50;15.70;1.00
10129;DHT22;5104;50.720;7.044;2023-03-23T09:43:29;15.90;1.00
10129;DHT22;5104;50.720;7.044;2023-03-23T09:46:07;15.90;1.00
10129;DHT22;5104;50.720;7.044;2023-03-23T09:48:46;15.90;1.00
10129;DHT22;5104;50.720;7.044;2023-03-23T09:51:21;16.00;1.00
10129;DHT22;5104;50.720;7.044;2023-03-23T09:53:55;16.00;1.00
10129;DHT22;5104;50.720;7.044;2023-03-23T09:56:24;15.90;1.00
10129;DHT22;5104;50.720;7.044;2023-03-23T09:58:57;16.00;1.00
10129;DHT22;5104;50.720;7.044;2023-03-23T10:01:28;16.00;1.00
10129;DHT22;5104;50.720;7.044;2023-03-23T10:04:03;16.10;1.00
10129;DHT22;5104;50.720;7.044;2023-03-23T10:06:32;16.10;1.00
10129;DHT22;5104;50.720;7.044;2023-03-23T10:09:02;16.20;1.00
10129;DHT22;5104;50.720;7.044;2023-03-23T10:11:38;16.20;1.00
10129;DHT22;5104;50.720;7.044;2023-03-23T10:14:14;16.20;1.00
10129;DHT22;5104;50.720;7.044;2023-03-23T10:16:54;16.20;1.00
10129;DHT22;5104;50.720;7.044;2023-03-23T10:19:29;16.30;1.00
10129;DHT22;5104;50.720;7.044;2023-03-23T10:22:03;16.30;1.00
10129;DHT22;5104;50.720;7.044;2023-03-23T10:24:35;16.50;1.00
10129;DHT22;5104;50.720;7.044;2023-03-23T10:27:11;16.70;1.00
10129;DHT22;5104;50.720;7.044;2023-03-23T10:29:43;17.00;1.00
10129;DHT22;5104;50.720;7.044;2023-03-23T10:32:14;16.70;1.00
10129;DHT22;5104;50.720;7.044;2023-03-23T10:34:45;16.30;1.00
10129;DHT22;5104;50.720;7.044;2023-03-23T10:37:18;16.20;1.00
10129;DHT22;5104;50.720;7.044;2023-03-23T10:39:51;16.10;1.00
10129;DHT22;5104;50.720;7.044;2023-03-23T10:42:24;16.30;1.00
10129;DHT22;5104;50.720;7.044;2023-03-23T10:44:53;16.20;1.00
10129;DHT22;5104;50.720;7.044;2023-03-23T10:47:22;16.00;1.00
10129;DHT22;5104;50.720;7.044;2023-03-23T10:49:53;15.90;1.00
10129;DHT22;5104;50.720;7.044;2023-03-23T10:52:32;15.70;1.00
10129;DHT22;5104;50.720;7.044;2023-03-23T10:55:05;15.80;1.00
10129;DHT22;5104;50.720;7.044;2023-03-23T10:57:35;15.80;1.00
10129;DHT22;5104;50.720;7.044;2023-03-23T11:00:05;15.90;1.00
10129;DHT22;5104;50.720;7.044;2023-03-23T11:02:39;15.80;1.00
10129;DHT22;5104;50.720;7.044;2023-03-23T11:05:16;15.80;15.50
10129;DHT22;5104;50.720;7.044;2023-03-23T11:07:50;15.90;22.50
10129;DHT22;5104;50.720;7.044;2023-03-23T11:10:24;16.10;1.00
10129;DHT22;5104;50.720;7.044;2023-03-23T11:12:51;16.20;1.00
10129;DHT22;5104;50.720;7.044;2023-03-23T11:15:38;16.20;1.00
10129;DHT22;5104;50.720;7.044;2023-03-23T11:18:11;16.50;1.00
10129;DHT22;5104;50.720;7.044;2023-03-23T11:20:40;16.30;1.00
10129;DHT22;5104;50.720;7.044;2023-03-23T11:23:17;16.30;1.00
10129;DHT22;5104;50.720;7.044;2023-03-23T11:26:08;16.50;1.00
10129;DHT22;5104;50.720;7.044;2023-03-23T11:28:37;16.10;1.00
10129;DHT22;5104;50.720;7.044;2023-03-23T11:31:06;15.90;1.00
10129;DHT22;5104;50.720;7.044;2023-03-23T11:33:46;16.00;1.00
10129;DHT22;5104;50.720;7.044;2023-03-23T11:36:14;16.20;1.00
10129;DHT22;5104;50.720;7.044;2023-03-23T11:38:42;16.30;1.00
10129;DHT22;5104;50.720;7.044;2023-03-23T11:41:12;16.20;1.00
10129;DHT22;5104;50.720;7.044;2023-03-23T11:43:45;16.30;1.00
10129;DHT22;5104;50.720;7.044;2023-03-23T11:46:20;16.50;1.00
10129;DHT22;5104;50.720;7.044;2023-03-23T11:48:53;16.90;1.00
10129;DHT22;5104;50.720;7.044;2023-03-23T11:51:29;17.30;1.00
10129;DHT22;5104;50.720;7.044;2023-03-23T11:54:02;17.10;1.00
10129;DHT22;5104;50.720;7.044;2023-03-23T11:56:34;17.10;1.00
10129;DHT22;5104;50.720;7.044;2023-03-23T11:59:05;16.90;1.00
10129;DHT22;5104;50.720;7.044;2023-03-23T12:01:46;16.60;1.00
10129;DHT22;5104;50.720;7.044;2023-03-23T12:04:33;16.60;1.00
10129;DHT22;5104;50.720;7.044;2023-03-23T12:07:10;16.80;1.00
10129;DHT22;5104;50.720;7.044;2023-03-23T12:09:46;17.00;1.00
10129;DHT22;5104;50.720;7.044;2023-03-23T12:12:21;16.90;99.90
10129;DHT22;5104;50.720;7.044;2023-03-23T12:14:58;16.90;99.90
10129;DHT22;5104;50.720;7.044;2023-03-23T12:17:35;17.20;99.90
10129;DHT22;5104;50.720;7.044;2023-03-23T12:20:17;17.10;99.90
10129;DHT22;5104;50.720;7.044;2023-03-23T12:22:55;17.20;99.90
10129;DHT22;5104;50.720;7.044;2023-03-23T12:25:50;17.30;99.90
10129;DHT22;5104;50.720;7.044;2023-03-23T12:28:32;17.40;99.90
10129;DHT22;5104;50.720;7.044;2023-03-23T12:31:05;17.60;99.90
10129;DHT22;5104;50.720;7.044;2023-03-23T12:33:42;17.50;99.90
10129;DHT22;5104;50.720;7.044;2023-03-23T12:36:23;17.40;99.90
10129;DHT22;5104;50.720;7.044;2023-03-23T12:39:29;17.20;99.90
10129;DHT22;5104;50.720;7.044;2023-03-23T12:42:04;17.50;99.90
10129;DHT22;5104;50.720;7.044;2023-03-23T12:44:40;17.80;99.90
10129;DHT22;5104;50.720;7.044;2023-03-23T12:47:29;17.60;99.90
10129;DHT22;5104;50.720;7.044;2023-03-23T12:50:01;17.40;99.90
10129;DHT22;5104;50.720;7.044;2023-03-23T12:52:33;17.20;99.90
10129;DHT22;5104;50.720;7.044;2023-03-23T12:55:05;17.10;99.90
10129;DHT22;5104;50.720;7.044;2023-03-23T12:57:37;17.30;99.90
10129;DHT22;5104;50.720;7.044;2023-03-23T13:00:16;17.00;99.90
10129;DHT22;5104;50.720;7.044;2023-03-23T13:02:51;16.90;99.90
10129;DHT22;5104;50.720;7.044;2023-03-23T13:05:29;16.70;99.90
10129;DHT22;5104;50.720;7.044;2023-03-23T13:08:02;16.80;99.90
10129;DHT22;5104;50.720;7.044;2023-03-23T13:10:33;16.80;99.90
10129;DHT22;5104;50.720;7.044;2023-03-23T13:13:02;17.00;99.90
10129;DHT22;5104;50.720;7.044;2023-03-23T13:15:39;17.10;99.90
10129;DHT22;5104;50.720;7.044;2023-03-23T13:18:16;17.10;99.90
10129;DHT22;5104;50.720;7.044;2023-03-23T13:20:54;17.20;99.90
10129;DHT22;5104;50.720;7.044;2023-03-23T13:23:26;17.40;99.90
10129;DHT22;5104;50.720;7.044;2023-03-23T13:25:59;17.70;99.90
10129;DHT22;5104;50.720;7.044;2023-03-23T13:28:28;17.60;99.90
10129;DHT22;5104;50.720;7.044;2023-03-23T13:31:13;17.60;99.90
10129;DHT22;5104;50.720;7.044;2023-03-23T13:33:46;17.50;99.90
10129;DHT22;5104;50.720;7.044;2023-03-23T13:36:19;17.60;99.90
10129;DHT22;5104;50.720;7.044;2023-03-23T13:38:48;17.60;99.90
10129;DHT22;5104;50.720;7.044;2023-03-23T13:41:17;18.00;99.90
10129;DHT22;5104;50.720;7.044;2023-03-23T13:43:47;18.30;99.90
10129;DHT22;5104;50.720;7.044;2023-03-23T13:46:27;18.30;99.90
10129;DHT22;5104;50.720;7.044;2023-03-23T13:49:17;18.20;99.90
10129;DHT22;5104;50.720;7.044;2023-03-23T13:51:58;18.10;99.90
10129;DHT22;5104;50.720;7.044;2023-03-23T13:54:31;18.10;99.90
10129;DHT22;5104;50.720;7.044;2023-03-23T13:56:59;18.40;99.90
10129;DHT22;5104;50.720;7.044;2023-03-23T13:59:32;18.50;99.90
10129;DHT22;5104;50.720;7.044;2023-03-23T14:05:11;18.40;99.90
10129;DHT22;5104;50.720;7.044;2023-03-23T14:07:53;18.30;99.90
10129;DHT22;5104;50.720;7.044;2023-03-23T14:10:21;18.30;99.90
10129;DHT22;5104;50.720;7.044;2023-03-23T14:12:52;18.30;99.90
10129;DHT22;5104;50.720;7.044;2023-03-23T14:15:19;18.40;99.90
10129;DHT22;5104;50.720;7.044;2023-03-23T14:17:47;18.10;99.90
10129;DHT22;5104;50.720;7.044;2023-03-23T14:20:23;18.00;99.90
10129;DHT22;5104;50.720;7.044;2023-03-23T14:22:54;18.10;99.90
10129;DHT22;5104;50.720;7.044;2023-03-23T14:25:22;17.90;99.90
10129;DHT22;5104;50.720;7.044;2023-03-23T14:27:53;17.60;99.90
10129;DHT22;5104;50.720;7.044;2023-03-23T14:30:21;17.70;99.90
10129;DHT22;5104;50.720;7.044;2023-03-23T14:32:48;17.70;99.90
10129;DHT22;5104;50.720;7.044;2023-03-23T14:35:24;17.60;99.90
10129;DHT22;5104;50.720;7.044;2023-03-23T14:37:52;17.70;99.90
10129;DHT22;5104;50.720;7.044;2023-03-23T14:40:20;17.70;99.90
10129;DHT22;5104;50.720;7.044;2023-03-23T14:42:47;17.70;99.90
10129;DHT22;5104;50.720;7.044;2023-03-23T14:45:18;17.50;99.90
10129;DHT22;5104;50.720;7.044;2023-03-23T14:47:47;17.60;99.90
10129;DHT22;5104;50.720;7.044;2023-03-23T14:50:28;17.50;99.90
10129;DHT22;5104;50.720;7.044;2023-03-23T14:53:02;17.20;99.90
10129;DHT22;5104;50.720;7.044;2023-03-23T14:55:31;17.20;99.90
10129;DHT22;5104;50.720;7.044;2023-03-23T14:58:06;17.00;99.90
10129;DHT22;5104;50.720;7.044;2023-03-23T15:00:40;17.20;99.90
10129;DHT22;5104;50.720;7.044;2023-03-23T15:03:12;17.20;99.90
10129;DHT22;5104;50.720;7.044;2023-03-23T15:05:43;17.60;99.90
10129;DHT22;5104;50.720;7.044;2023-03-23T15:08:14;17.90;99.90
10129;DHT22;5104;50.720;7.044;2023-03-23T15:10:42;17.90;99.90
10129;DHT22;5104;50.720;7.044;2023-03-23T15:13:17;18.20;99.90
10129;DHT22;5104;50.720;7.044;2023-03-23T15:15:45;18.30;99.90
10129;DHT22;5104;50.720;7.044;2023-03-23T15:18:26;18.50;99.90
10129;DHT22;5104;50.720;7.044;2023-03-23T15:20:57;18.50;99.90
10129;DHT22;5104;50.720;7.044;2023-03-23T15:23:27;18.60;99.90
10129;DHT22;5104;50.720;7.044;2023-03-23T15:25:56;18.50;99.90
10129;DHT22;5104;50.720;7.044;2023-03-23T15:28:29;18.40;99.90
10129;DHT22;5104;50.720;7.044;2023-03-23T15:31:01;18.30;99.90
10129;DHT22;5104;50.720;7.044;2023-03-23T15:33:34;18.20;99.90
10129;DHT22;5104;50.720;7.044;2023-03-23T15:36:07;18.10;99.90
10129;DHT22;5104;50.720;7.044;2023-03-23T15:38:35;17.80;99.90
10129;DHT22;5104;50.720;7.044;2023-03-23T15:41:04;17.80;99.90
10129;DHT22;5104;50.720;7.044;2023-03-23T15:43:33;17.70;99.90
10129;DHT22;5104;50.720;7.044;2023-03-23T15:46:02;17.30;99.90
10129;DHT22;5104;50.720;7.044;2023-03-23T15:48:30;17.40;99.90
10129;DHT22;5104;50.720;7.044;2023-03-23T15:50:58;17.30;99.90
10129;DHT22;5104;50.720;7.044;2023-03-23T15:53:31;17.50;99.90
10129;DHT22;5104;50.720;7.044;2023-03-23T15:56:00;17.40;99.90
10129;DHT22;5104;50.720;7.044;2023-03-23T15:58:28;17.60;99.90
10129;DHT22;5104;50.720;7.044;2023-03-23T16:00:55;17.80;99.90
10129;DHT22;5104;50.720;7.044;2023-03-23T16:03:24;17.80;99.90
10129;DHT22;5104;50.720;7.044;2023-03-23T16:05:53;17.80;99.90
10129;DHT22;5104;50.720;7.044;2023-03-23T16:08:20;17.90;99.90
10129;DHT22;5104;50.720;7.044;2023-03-23T16:10:49;17.90;99.90
10129;DHT22;5104;50.720;7.044;2023-03-23T16:13:16;17.70;99.90
10129;DHT22;5104;50.720;7.044;2023-03-23T16:15:43;17.80;99.90
10129;DHT22;5104;50.720;7.044;2023-03-23T16:18:16;17.40;99.90
10129;DHT22;5104;50.720;7.044;2023-03-23T16:20:43;17.10;99.90